sensor_id;sensor_type;location;lat;lon;timestamp;temperature;humidity
13686;DHT22;6915;48.296;8.874;2023-01-28T04:55:53;-2.00;99.90
13686;DHT22;6915;48.296;8.874;2023-01-28T04:58:22;-2.00;99.90
13686;DHT22;6915;48.296;8.874;2023-01-28T05:00:53;-2.10;99.90
13686;DHT22;6915;48.296;8.874;2023-01-28T05:03:22;-2.00;99.90
13686;DHT22;6915;48.296;8.874;2023-01-28T05:05:52;-2.00;99.90
13686;DHT22;6915;48.296;8.874;2023-01-28T05:08:20;-2.00;99.90
13686;DHT22;6915;48.296;8.874;2023-01-28T05:10:49;-2.00;99.90
13686;DHT22;6915;48.296;8.874;2023-01-28T05:13:20;-2.00;99.90
13686;DHT22;6915;48.296;8.874;2023-01-28T05:15:52;-1.80;99.90
13686;DHT22;6915;48.296;8.874;2023-01-28T05:18:21;-2.00;99.90
13686;DHT22;6915;48.296;8.874;2023-01-28T05:20:50;-2.00;99.90
13686;DHT22;6915;48.296;8.874;2023-01-28T05:23:19;-2.00;99.90
13686;DHT22;6915;48.296;8.874;2023-01-28T05:25:48;-2.00;99.90
13686;DHT22;6915;48.296;8.874;2023-01-28T05:28:16;-2.00;99.90
13686;DHT22;6915;48.296;8.874;2023-01-28T05:30:46;-2.00;99.90
13686;DHT22;6915;48.296;8.874;2023-01-28T05:33:15;-2.00;99.90
13686;DHT22;6915;48.296;8.874;2023-01-28T05:35:44;-2.00;99.90
13686;DHT22;6915;48.296;8.874;2023-01-28T05:38:13;-2.00;99.90
13686;DHT22;6915;48.296;8.874;2023-01-28T05:40:42;-2.00;99.90
13686;DHT22;6915;48.296;8.874;2023-01-28T05:43:11;-2.00;99.90
13686;DHT22;6915;48.296;8.874;2023-01-28T05:45:40;-2.00;99.90
13686;DHT22;6915;48.296;8.874;2023-01-28T05:48:10;-2.00;99.90
13686;DHT22;6915;48.296;8.874;2023-01-28T05:50:39;-2.00;99.90
13686;DHT22;6915;48.296;8.874;2023-01-28T05:53:08;-2.00;99.90
13686;DHT22;6915;48.296;8.874;2023-01-28T05:55:37;-2.00;99.90
13686;DHT22;6915;48.296;8.874;2023-01-28T05:58:05;-2.00;99.90
13686;DHT22;6915;48.296;8.874;2023-01-28T06:00:34;-2.00;99.90
13686;DHT22;6915;48.296;8.874;2023-01-28T06:03:04;-1.90;99.90
13686;DHT22;6915;48.296;8.874;2023-01-28T06:05:34;-2.00;99.90
13686;DHT22;6915;48.296;8.874;2023-01-28T06:08:04;-2.00;99.90
13686;DHT22;6915;48.296;8.874;2023-01-28T06:10:32;-2.00;99.90
13686;DHT22;6915;48.296;8.874;2023-01-28T06:13:01;-2.00;99.90
13686;DHT22;6915;48.296;8.874;2023-01-28T06:15:31;-1.90;99.90
13686;DHT22;6915;48.296;8.874;2023-01-28T06:18:00;-1.70;99.90
13686;DHT22;6915;48.296;8.874;2023-01-28T06:20:28;-1.80;99.90
13686;DHT22;6915;48.296;8.874;2023-01-28T06:22:59;-1.90;99.90
13686;DHT22;6915;48.296;8.874;2023-01-28T06:25:28;-1.90;99.90
13686;DHT22;6915;48.296;8.874;2023-01-28T06:27:56;-2.00;99.90
13686;DHT22;6915;48.296;8.874;2023-01-28T06:30:25;-1.90;99.90
13686;DHT22;6915;48.296;8.874;2023-01-28T06:32:57;-2.00;99.90
13686;DHT22;6915;48.296;8.874;2023-01-28T06:35:26;-1.90;99.90
13686;DHT22;6915;48.296;8.874;2023-01-28T06:37:55;-1.90;99.90
13686;DHT22;6915;48.296;8.874;2023-01-28T06:40:26;-2.00;99.90
13686;DHT22;6915;48.296;8.874;2023-01-28T06:42:55;-1.90;99.90
13686;DHT22;6915;48.296;8.874;2023-01-28T06:45:23;-1.70;99.90
13686;DHT22;6915;48.296;8.874;2023-01-28T06:47:52;-1.90;99.90
13686;DHT22;6915;48.296;8.874;2023-01-28T06:50:21;-1.60;99.90
13686;DHT22;6915;48.296;8.874;2023-01-28T06:52:50;-1.70;99.90
13686;DHT22;6915;48.296;8.874;2023-01-28T06:55:19;-1.90;99.90
13686;DHT22;6915;48.296;8.874;2023-01-28T06:57:49;-1.90;99.90
13686;DHT22;6915;48.296;8.874;2023-01-28T07:00:20;-1.90;99.90
13686;DHT22;6915;48.296;8.874;2023-01-28T07:02:49;-1.80;99.90
13686;DHT22;6915;48.296;8.874;2023-01-28T07:05:23;-1.90;99.90
13686;DHT22;6915;48.296;8.874;2023-01-28T07:07:52;-1.80;99.90
13686;DHT22;6915;48.296;8.874;2023-01-28T07:10:21;-1.80;99.90
13686;DHT22;6915;48.296;8.874;2023-01-28T07:12:51;-1.80;99.90
13686;DHT22;6915;48.296;8.874;2023-01-28T07:15:20;-1.80;99.90
13686;DHT22;6915;48.296;8.874;2023-01-28T07:17:59;-1.80;99.90
13686;DHT22;6915;48.296;8.874;2023-01-28T07:20:28;-1.90;99.90
13686;DHT22;6915;48.296;8.874;2023-01-28T07:22:57;-1.80;99.90
13686;DHT22;6915;48.296;8.874;2023-01-28T07:25:26;-1.80;99.90
13686;DHT22;6915;48.296;8.874;2023-01-28T07:27:56;-1.70;99.90
13686;DHT22;6915;48.296;8.874;2023-01-28T07:30:25;-1.80;99.90
13686;DHT22;6915;48.296;8.874;2023-01-28T09:26:51;-0.90;99.90
13686;DHT22;6915;48.296;8.874;2023-01-28T09:29:19;-0.90;99.90
13686;DHT22;6915;48.296;8.874;2023-01-28T09:31:48;-0.70;99.90
13686;DHT22;6915;48.296;8.874;2023-01-28T09:34:17;-0.60;99.90
13686;DHT22;6915;48.296;8.874;2023-01-28T09:36:46;-0.60;99.90
13686;DHT22;6915;48.296;8.874;2023-01-28T09:39:14;-0.50;99.90
13686;DHT22;6915;48.296;8.874;2023-01-28T09:41:50;-0.60;99.90
13686;DHT22;6915;48.296;8.874;2023-01-28T09:44:31;-0.60;99.90
13686;DHT22;6915;48.296;8.874;2023-01-28T09:47:07;-0.60;99.90
13686;DHT22;6915;48.296;8.874;2023-01-28T09:49:42;-0.70;99.90
13686;DHT22;6915;48.296;8.874;2023-01-28T09:52:17;-0.70;99.90
13686;DHT22;6915;48.296;8.874;2023-01-28T09:54:48;-0.70;99.90
13686;DHT22;6915;48.296;8.874;2023-01-28T09:57:21;-0.70;99.90
13686;DHT22;6915;48.296;8.874;2023-01-28T09:59:51;-0.60;99.90
13686;DHT22;6915;48.296;8.874;2023-01-28T10:02:29;-0.60;99.90
13686;DHT22;6915;48.296;8.874;2023-01-28T10:05:06;-0.60;99.90
13686;DHT22;6915;48.296;8.874;2023-01-28T10:07:45;-0.60;99.90
13686;DHT22;6915;48.296;8.874;2023-01-28T10:10:21;-0.50;99.90
13686;DHT22;6915;48.296;8.874;2023-01-28T10:13:17;-0.60;99.90
13686;DHT22;6915;48.296;8.874;2023-01-28T10:16:15;-0.60;99.90
13686;DHT22;6915;48.296;8.874;2023-01-28T10:18:49;-0.50;99.90
13686;DHT22;6915;48.296;8.874;2023-01-28T10:21:23;-0.30;99.90
13686;DHT22;6915;48.296;8.874;2023-01-28T10:23:58;-0.40;99.90
13686;DHT22;6915;48.296;8.874;2023-01-28T10:26:36;-0.50;99.90
13686;DHT22;6915;48.296;8.874;2023-01-28T10:29:12;-0.50;99.90
13686;DHT22;6915;48.296;8.874;2023-01-28T10:31:46;-0.50;99.90
13686;DHT22;6915;48.296;8.874;2023-01-28T10:34:18;-0.40;99.90
13686;DHT22;6915;48.296;8.874;2023-01-28T10:36:47;-0.50;99.90
13686;DHT22;6915;48.296;8.874;2023-01-28T10:39:18;-0.60;99.90
13686;DHT22;6915;48.296;8.874;2023-01-28T10:41:47;-0.60;99.90
13686;DHT22;6915;48.296;8.874;2023-01-28T10:44:29;-0.60;99.90
13686;DHT22;6915;48.296;8.874;2023-01-28T10:47:01;-0.60;99.90
13686;DHT22;6915;48.296;8.874;2023-01-28T10:49:40;-0.50;99.90
13686;DHT22;6915;48.296;8.874;2023-01-28T10:52:14;-0.40;99.90
13686;DHT22;6915;48.296;8.874;2023-01-28T10:54:43;-0.50;99.90
13686;DHT22;6915;48.296;8.874;2023-01-28T10:57:15;-0.30;99.90
13686;DHT22;6915;48.296;8.874;2023-01-28T10:59:46;-0.30;99.90
13686;DHT22;6915;48.296;8.874;2023-01-28T11:02:25;-0.20;99.90
13686;DHT22;6915;48.296;8.874;2023-01-28T11:05:04;-0.10;99.90
13686;DHT22;6915;48.296;8.874;2023-01-28T11:28:19;-0.20;99.90
13686;DHT22;6915;48.296;8.874;2023-01-28T11:30:52;-0.10;99.90
13686;DHT22;6915;48.296;8.874;2023-01-28T11:33:25;-0.20;99.90
13686;DHT22;6915;48.296;8.874;2023-01-28T11:35:56;-0.20;99.90
13686;DHT22;6915;48.296;8.874;2023-01-28T11:38:26;-0.20;99.90
13686;DHT22;6915;48.296;8.874;2023-01-28T16:02:25;-0.30;99.90
13686;DHT22;6915;48.296;8.874;2023-01-28T16:04:59;-0.30;99.90
13686;DHT22;6915;48.296;8.874;2023-01-28T16:07:30;-0.30;99.90
13686;DHT22;6915;48.296;8.874;2023-01-28T16:10:01;-0.30;99.90
13686;DHT22;6915;48.296;8.874;2023-01-28T16:12:31;-0.30;99.90
13686;DHT22;6915;48.296;8.874;2023-01-28T16:22:45;-0.40;99.90
13686;DHT22;6915;48.296;8.874;2023-01-28T16:25:25;-0.50;99.90
13686;DHT22;6915;48.296;8.874;2023-01-28T16:27:55;-0.40;99.90
13686;DHT22;6915;48.296;8.874;2023-01-28T16:30:24;-0.40;99.90
13686;DHT22;6915;48.296;8.874;2023-01-28T16:32:53;-0.40;99.90
13686;DHT22;6915;48.296;8.874;2023-01-28T16:35:26;-0.40;99.90
13686;DHT22;6915;48.296;8.874;2023-01-28T16:37:56;-0.40;99.90
13686;DHT22;6915;48.296;8.874;2023-01-28T16:40:27;-0.30;99.90
13686;DHT22;6915;48.296;8.874;2023-01-28T16:42:56;-0.30;99.90
13686;DHT22;6915;48.296;8.874;2023-01-28T16:45:26;-0.40;99.90
13686;DHT22;6915;48.296;8.874;2023-01-28T16:58:29;-0.40;99.90
13686;DHT22;6915;48.296;8.874;2023-01-28T17:00:58;-0.40;99.90
13686;DHT22;6915;48.296;8.874;2023-01-28T17:03:26;-0.50;99.90
13686;DHT22;6915;48.296;8.874;2023-01-28T17:05:55;-0.40;99.90
13686;DHT22;6915;48.296;8.874;2023-01-28T17:08:24;-0.50;99.90
13686;DHT22;6915;48.296;8.874;2023-01-28T17:10:52;-0.40;99.90
13686;DHT22;6915;48.296;8.874;2023-01-28T17:13:22;-0.40;99.90
13686;DHT22;6915;48.296;8.874;2023-01-28T17:15:52;-0.40;99.90
13686;DHT22;6915;48.296;8.874;2023-01-28T17:18:21;-0.50;99.90
13686;DHT22;6915;48.296;8.874;2023-01-28T17:20:50;-0.50;99.90
13686;DHT22;6915;48.296;8.874;2023-01-28T17:23:20;-0.50;99.90
13686;DHT22;6915;48.296;8.874;2023-01-28T17:25:53;-0.40;99.90
13686;DHT22;6915;48.296;8.874;2023-01-28T17:28:21;-0.50;99.90
13686;DHT22;6915;48.296;8.874;2023-01-28T17:30:52;-0.50;99.90
13686;DHT22;6915;48.296;8.874;2023-01-28T17:33:20;-0.50;99.90
13686;DHT22;6915;48.296;8.874;2023-01-28T17:35:49;-0.60;99.90
13686;DHT22;6915;48.296;8.874;2023-01-28T17:38:18;-0.50;99.90
13686;DHT22;6915;48.296;8.874;2023-01-28T17:40:47;-0.50;99.90
13686;DHT22;6915;48.296;8.874;2023-01-28T17:43:15;-0.50;99.90
13686;DHT22;6915;48.296;8.874;2023-01-28T17:45:44;-0.50;99.90
13686;DHT22;6915;48.296;8.874;2023-01-28T18:03:46;-0.70;99.90
13686;DHT22;6915;48.296;8.874;2023-01-28T18:06:19;-0.70;99.90
13686;DHT22;6915;48.296;8.874;2023-01-28T18:16:31;-0.70;99.90
13686;DHT22;6915;48.296;8.874;2023-01-28T18:19:01;-0.70;99.90
13686;DHT22;6915;48.296;8.874;2023-01-28T18:21:34;-0.70;99.90
13686;DHT22;6915;48.296;8.874;2023-01-28T18:24:04;-0.70;99.90
13686;DHT22;6915;48.296;8.874;2023-01-28T18:26:35;-0.70;99.90
13686;DHT22;6915;48.296;8.874;2023-01-28T18:29:04;-0.70;99.90
13686;DHT22;6915;48.296;8.874;2023-01-28T18:31:34;-0.80;99.90
13686;DHT22;6915;48.296;8.874;2023-01-28T18:34:04;-0.70;99.90
13686;DHT22;6915;48.296;8.874;2023-01-28T18:36:34;-0.70;99.90
13686;DHT22;6915;48.296;8.874;2023-01-28T18:39:03;-0.80;99.90
13686;DHT22;6915;48.296;8.874;2023-01-28T18:41:32;-0.80;99.90
13686;DHT22;6915;48.296;8.874;2023-01-28T18:44:01;-0.80;99.90
13686;DHT22;6915;48.296;8.874;2023-01-28T18:46:31;-0.70;99.90
13686;DHT22;6915;48.296;8.874;2023-01-28T18:49:00;-0.80;99.90
13686;DHT22;6915;48.296;8.874;2023-01-28T18:51:31;-0.80;99.90
13686;DHT22;6915;48.296;8.874;2023-01-28T18:54:01;-0.90;99.90
13686;DHT22;6915;48.296;8.874;2023-01-28T18:56:33;-0.80;99.90
13686;DHT22;6915;48.296;8.874;2023-01-28T18:59:03;-0.70;99.90
13686;DHT22;6915;48.296;8.874;2023-01-28T19:01:33;-0.80;99.90
13686;DHT22;6915;48.296;8.874;2023-01-28T19:04:03;-0.70;99.90
13686;DHT22;6915;48.296;8.874;2023-01-28T19:06:35;-0.80;99.90
13686;DHT22;6915;48.296;8.874;2023-01-28T19:09:06;-0.80;99.90
13686;DHT22;6915;48.296;8.874;2023-01-28T19:11:36;-0.80;99.90
13686;DHT22;6915;48.296;8.874;2023-01-28T19:14:11;-0.80;99.90
13686;DHT22;6915;48.296;8.874;2023-01-28T19:16:41;-0.80;99.90
13686;DHT22;6915;48.296;8.874;2023-01-28T19:19:11;-0.80;99.90
13686;DHT22;6915;48.296;8.874;2023-01-28T19:21:42;-0.80;99.90
13686;DHT22;6915;48.296;8.874;2023-01-28T19:24:12;-0.80;99.90
13686;DHT22;6915;48.296;8.874;2023-01-28T19:26:42;-0.70;99.90
13686;DHT22;6915;48.296;8.874;2023-01-28T19:29:13;-0.60;99.90
13686;DHT22;6915;48.296;8.874;2023-01-28T19:31:42;-0.80;99.90
13686;DHT22;6915;48.296;8.874;2023-01-28T19:34:15;-0.80;99.90
13686;DHT22;6915;48.296;8.874;2023-01-28T19:36:45;-0.70;99.90
13686;DHT22;6915;48.296;8.874;2023-01-28T19:39:14;-0.80;99.90
13686;DHT22;6915;48.296;8.874;2023-01-28T19:41:44;-0.80;99.90
13686;DHT22;6915;48.296;8.874;2023-01-28T19:44:13;-0.80;99.90
13686;DHT22;6915;48.296;8.874;2023-01-28T19:46:42;-0.80;99.90
13686;DHT22;6915;48.296;8.874;2023-01-28T19:49:10;-0.80;99.90
13686;DHT22;6915;48.296;8.874;2023-01-28T19:56:52;-0.80;99.90
13686;DHT22;6915;48.296;8.874;2023-01-28T19:59:21;-0.80;99.90
13686;DHT22;6915;48.296;8.874;2023-01-28T20:01:50;-0.80;99.90
13686;DHT22;6915;48.296;8.874;2023-01-28T22:43:46;-1.00;99.90
13686;DHT22;6915;48.296;8.874;2023-01-28T22:46:15;-1.00;99.90
13686;DHT22;6915;48.296;8.874;2023-01-28T22:48:44;-1.00;99.90
13686;DHT22;6915;48.296;8.874;2023-01-28T22:51:18;-1.00;99.90
13686;DHT22;6915;48.296;8.874;2023-01-28T22:53:48;-1.10;99.90
13686;DHT22;6915;48.296;8.874;2023-01-28T22:56:19;-1.00;99.90
13686;DHT22;6915;48.296;8.874;2023-01-28T22:58:49;-1.10;99.90
13686;DHT22;6915;48.296;8.874;2023-01-28T23:01:21;-1.00;99.90
13686;DHT22;6915;48.296;8.874;2023-01-28T23:03:50;-1.00;99.90
13686;DHT22;6915;48.296;8.874;2023-01-28T23:06:20;-1.00;99.90
13686;DHT22;6915;48.296;8.874;2023-01-28T23:08:49;-1.00;99.90
13686;DHT22;6915;48.296;8.874;2023-01-28T23:11:18;-1.00;99.90
13686;DHT22;6915;48.296;8.874;2023-01-28T23:13:56;-1.00;99.90
13686;DHT22;6915;48.296;8.874;2023-01-28T23:16:43;-1.00;99.90
13686;DHT22;6915;48.296;8.874;2023-01-28T23:19:30;-1.00;99.90
13686;DHT22;6915;48.296;8.874;2023-01-28T23:22:19;-1.10;99.90
13686;DHT22;6915;48.296;8.874;2023-01-28T23:25:07;-1.10;99.90
13686;DHT22;6915;48.296;8.874;2023-01-28T23:27:36;-1.10;99.90
13686;DHT22;6915;48.296;8.874;2023-01-28T23:30:09;-1.10;99.90
13686;DHT22;6915;48.296;8.874;2023-01-28T23:32:40;-1.10;99.90
13686;DHT22;6915;48.296;8.874;2023-01-28T23:35:10;-1.00;99.90
13686;DHT22;6915;48.296;8.874;2023-01-28T23:37:40;-1.10;99.90
13686;DHT22;6915;48.296;8.874;2023-01-28T23:40:10;-1.10;99.90
13686;DHT22;6915;48.296;8.874;2023-01-28T23:42:39;-1.10;99.90
13686;DHT22;6915;48.296;8.874;2023-01-28T23:45:12;-1.10;99.90
13686;DHT22;6915;48.296;8.874;2023-01-28T23:47:41;-1.10;99.90
13686;DHT22;6915;48.296;8.874;2023-01-28T23:50:11;-1.10;99.90
13686;DHT22;6915;48.296;8.874;2023-01-28T23:52:40;-1.10;99.90
13686;DHT22;6915;48.296;8.874;2023-01-28T23:55:10;-1.10;99.90
13686;DHT22;6915;48.296;8.874;2023-01-28T23:57:39;-1.20;99.90
